Atlee, Canada
Current Conditions -  °F | °C
As of 4:00 PM on Thursday 18 Dec 2014 (Local Time) from CYXH Reporting Station
Scattered Clouds Scattered Clouds  
Wind Chill: 21°   Ceiling: Unl
Heat Index: 21°   Visibility: 30mi
Dew Point: 19°   Wind: 3mph
Humidity: 93%   Direction: 50°NE
Pressure: 29.85"   Gusts: NA
Location:  50.85°N, 110.95°W
Report Text: CYXH 182300Z 05003KT 30SM FEW130 SCT280 M06/M07 A2985 RMK AC1CI2 SLP144
Loading
Personal Weather Stations






























Interactive Weather Map New forecast layout! Learn more

10-Day Weather Forecast

Advertisements
Track Severe Weather on mobile